createdAt,value
2023-03-03T00:01:30.954Z,102616.72
2023-03-03T00:03:57.684Z,102593.56
2023-03-03T00:06:24.981Z,102589.94
2023-03-03T00:08:52.081Z,102565.94
2023-03-03T00:11:19.360Z,102589.03
2023-03-03T00:13:51.869Z,102590.69
2023-03-03T00:16:28.351Z,102579.44
2023-03-03T00:18:55.520Z,102613.00
2023-03-03T00:21:29.116Z,102616.41
2023-03-03T00:24:11.523Z,102600.16
2023-03-03T00:26:39.371Z,102620.53
2023-03-03T00:29:24.648Z,102609.03
2023-03-03T00:31:51.556Z,102603.78
2023-03-03T00:34:18.440Z,102615.78
2023-03-03T00:36:46.152Z,102621.91
2023-03-03T00:39:30.841Z,102611.53
2023-03-03T00:41:59.836Z,102607.19
2023-03-03T00:44:43.822Z,102616.69
2023-03-03T00:47:31.778Z,102618.56
2023-03-03T00:50:07.927Z,102614.19
2023-03-03T00:52:45.757Z,102566.09
2023-03-03T00:55:12.725Z,102611.53
2023-03-03T00:57:39.408Z,102611.63
2023-03-03T01:00:06.690Z,102600.53
2023-03-03T01:02:33.797Z,102586.88
2023-03-03T01:05:00.649Z,102613.56
2023-03-03T01:07:27.330Z,102577.31
2023-03-03T01:09:54.189Z,102599.59
2023-03-03T01:12:20.867Z,102600.34
2023-03-03T01:14:49.378Z,102608.09
2023-03-03T01:17:16.235Z,102590.00
2023-03-03T01:19:42.863Z,102606.25
2023-03-03T01:22:09.698Z,102590.81
2023-03-03T01:24:36.731Z,102592.56
2023-03-03T01:27:03.396Z,102597.44
2023-03-03T01:29:30.137Z,102606.09
2023-03-03T01:31:57.130Z,102599.06
2023-03-03T01:34:25.102Z,102602.50
2023-03-03T01:36:51.775Z,102588.59
2023-03-03T01:39:18.501Z,102549.19
2023-03-03T01:41:45.191Z,102562.06
2023-03-03T01:44:15.692Z,102568.00
2023-03-03T01:46:54.531Z,102595.56
2023-03-03T01:49:29.376Z,102595.72
2023-03-03T01:52:00.179Z,102594.19
2023-03-03T01:54:37.995Z,102595.06
2023-03-03T01:57:08.567Z,102507.41
2023-03-03T01:59:37.810Z,102591.50
2023-03-03T02:02:05.462Z,102549.25
2023-03-03T02:04:33.964Z,102588.78
2023-03-03T02:07:07.042Z,102605.25
2023-03-03T02:10:01.747Z,102593.81
2023-03-03T02:12:50.731Z,102586.81
2023-03-03T02:15:37.307Z,102590.16
2023-03-03T02:18:14.538Z,102549.84
2023-03-03T02:21:07.394Z,102597.28
2023-03-03T02:23:56.057Z,102588.53
2023-03-03T02:26:25.503Z,102583.44
2023-03-03T02:28:52.571Z,102588.00
2023-03-03T02:31:22.727Z,102584.69
2023-03-03T02:33:51.554Z,102582.09
2023-03-03T02:36:30.353Z,102590.66
2023-03-03T02:39:24.628Z,102595.72
2023-03-03T02:42:01.611Z,102581.81
2023-03-03T02:44:31.175Z,102583.44
2023-03-03T02:46:58.805Z,102544.81
2023-03-03T02:49:31.084Z,102587.69
2023-03-03T02:51:59.095Z,102586.97
2023-03-03T02:54:28.009Z,102559.31
2023-03-03T02:56:54.852Z,102571.09
2023-03-03T02:59:21.752Z,102566.84
2023-03-03T03:01:49.177Z,102576.44
2023-03-03T03:04:35.634Z,102596.09
2023-03-03T03:07:02.371Z,102591.72
2023-03-03T03:09:29.094Z,102581.38
2023-03-03T03:11:55.790Z,102581.31
2023-03-03T03:14:23.928Z,102576.16
2023-03-03T03:16:50.825Z,102565.78
2023-03-03T03:19:17.658Z,102583.94
2023-03-03T03:21:44.407Z,102578.69
2023-03-03T03:24:11.140Z,102566.66
2023-03-03T03:26:37.983Z,102572.72
2023-03-03T03:29:04.737Z,102584.75
2023-03-03T03:31:31.467Z,102583.28
2023-03-03T03:33:58.247Z,102523.19
2023-03-03T03:36:24.851Z,102586.72
2023-03-03T03:38:52.533Z,102584.22
2023-03-03T03:41:19.180Z,102588.69
2023-03-03T03:43:45.843Z,102586.91
2023-03-03T03:46:13.138Z,102586.91
2023-03-03T03:48:39.952Z,102583.47
2023-03-03T03:51:06.624Z,102587.84
2023-03-03T03:53:33.416Z,102562.06
2023-03-03T03:56:00.213Z,102558.81
2023-03-03T03:58:26.985Z,102569.97
2023-03-03T04:00:53.958Z,102575.31
2023-03-03T04:03:21.005Z,102584.78
2023-03-03T04:05:47.818Z,102563.41
2023-03-03T04:08:14.523Z,102571.34
2023-03-03T04:10:41.279Z,102581.66
2023-03-03T04:13:08.108Z,102556.97
2023-03-03T04:15:35.171Z,102544.94
2023-03-03T04:18:02.255Z,102494.38
2023-03-03T04:20:28.957Z,102576.91
2023-03-03T04:22:57.227Z,102583.13
2023-03-03T04:25:24.075Z,102556.56
2023-03-03T04:27:52.858Z,102579.91
2023-03-03T04:30:19.524Z,102549.06
2023-03-03T04:32:46.219Z,102576.75
2023-03-03T04:35:12.966Z,102566.44
2023-03-03T04:37:39.915Z,102586.47
2023-03-03T04:40:08.527Z,102577.00
2023-03-03T04:42:36.012Z,102582.38
2023-03-03T04:45:03.773Z,102547.22
2023-03-03T04:47:30.924Z,102574.00
2023-03-03T04:49:57.650Z,102575.72
2023-03-03T04:52:24.379Z,102578.50
2023-03-03T04:54:51.176Z,102558.78
2023-03-03T04:57:17.864Z,102518.50
2023-03-03T04:59:44.657Z,102577.94
2023-03-03T05:02:13.189Z,102553.91
2023-03-03T05:04:39.874Z,102573.81
2023-03-03T05:07:06.854Z,102505.03
2023-03-03T05:09:33.634Z,102553.38
2023-03-03T05:12:00.314Z,102573.13
2023-03-03T05:14:27.963Z,102550.06
2023-03-03T05:16:55.357Z,102578.47
2023-03-03T05:19:22.003Z,102575.03
2023-03-03T05:21:48.800Z,102561.50
2023-03-03T05:24:15.991Z,102572.84
2023-03-03T05:26:42.620Z,102571.25
2023-03-03T05:29:09.583Z,102572.03
2023-03-03T05:31:37.089Z,102589.31
2023-03-03T05:34:03.792Z,102558.28
2023-03-03T05:36:30.581Z,102573.00
2023-03-03T05:38:57.359Z,102587.66
2023-03-03T05:41:24.161Z,102555.94
2023-03-03T05:43:50.838Z,102577.41
2023-03-03T05:46:17.753Z,102586.06
2023-03-03T05:48:45.358Z,102587.84
2023-03-03T05:51:12.438Z,102567.28
2023-03-03T05:53:39.374Z,102573.31
2023-03-03T05:56:06.525Z,102584.53
2023-03-03T05:58:33.174Z,102580.31
2023-03-03T06:00:59.937Z,102568.28
2023-03-03T06:03:26.758Z,102595.94
2023-03-03T06:05:53.821Z,102585.69
2023-03-03T06:08:20.590Z,102582.28
2023-03-03T06:10:47.724Z,102569.44
2023-03-03T06:13:15.071Z,102603.97
2023-03-03T06:15:42.065Z,102569.56
2023-03-03T06:18:08.954Z,102566.13
2023-03-03T06:20:36.672Z,102592.06
2023-03-03T06:23:03.790Z,102598.97
2023-03-03T06:25:30.800Z,102582.63
2023-03-03T06:27:58.126Z,102575.78
2023-03-03T06:30:26.992Z,102600.78
2023-03-03T06:32:53.849Z,102590.41
2023-03-03T06:35:20.785Z,102523.34
2023-03-03T06:37:51.039Z,102568.94
2023-03-03T06:40:18.073Z,102597.28
2023-03-03T06:42:44.992Z,102614.50
2023-03-03T06:45:12.340Z,102565.38
2023-03-03T06:47:39.013Z,102614.41
2023-03-03T06:50:06.644Z,102616.25
2023-03-03T06:52:33.444Z,102615.28
2023-03-03T06:55:09.969Z,102598.91
2023-03-03T06:57:37.223Z,102623.84
2023-03-03T07:00:16.851Z,102628.94
2023-03-03T07:02:44.102Z,102616.94
2023-03-03T07:05:18.453Z,102638.41
2023-03-03T07:07:45.692Z,102627.91
2023-03-03T07:10:24.702Z,102636.31
2023-03-03T07:12:51.964Z,102637.88
2023-03-03T07:15:34.666Z,102633.38
2023-03-03T07:18:02.595Z,102615.25
2023-03-03T07:20:41.655Z,102613.34
2023-03-03T07:23:46.637Z,102653.75
2023-03-03T07:26:17.332Z,102640.88
2023-03-03T07:28:48.963Z,102658.00
2023-03-03T07:31:29.597Z,102640.81
2023-03-03T07:33:57.489Z,102657.13
2023-03-03T07:36:30.968Z,102657.94
2023-03-03T07:39:02.054Z,102663.94
2023-03-03T07:41:29.799Z,102646.44
2023-03-03T07:44:05.242Z,102652.28
2023-03-03T07:46:48.149Z,102628.72
2023-03-03T07:49:21.969Z,102641.28
2023-03-03T07:51:53.863Z,102656.19
2023-03-03T07:54:31.932Z,102659.16
2023-03-03T07:57:20.968Z,102632.06
2023-03-03T08:00:08.123Z,102666.06
2023-03-03T08:02:56.981Z,102659.31
2023-03-03T08:05:29.797Z,102669.16
2023-03-03T08:08:36.862Z,102672.00
2023-03-03T08:11:04.681Z,102661.94
2023-03-03T08:13:34.302Z,102666.41
2023-03-03T08:16:18.565Z,102670.19
2023-03-03T08:18:47.938Z,102670.56
2023-03-03T08:21:27.432Z,102669.97
2023-03-03T08:23:54.987Z,102641.84
2023-03-03T08:26:22.840Z,102666.84
2023-03-03T08:28:50.523Z,102653.22
2023-03-03T08:31:28.043Z,102673.16
2023-03-03T08:34:04.728Z,102668.81
2023-03-03T08:36:33.651Z,102659.41
2023-03-03T08:39:01.552Z,102638.75
2023-03-03T08:41:28.345Z,102605.31
2023-03-03T08:43:55.134Z,102656.84
2023-03-03T08:46:21.946Z,102667.19
2023-03-03T08:48:49.853Z,102619.88
2023-03-03T08:51:16.576Z,102654.25
2023-03-03T08:53:43.274Z,102665.38
2023-03-03T08:56:10.570Z,102660.84
2023-03-03T08:58:37.673Z,102631.47
2023-03-03T09:01:05.087Z,102673.66
2023-03-03T09:03:32.179Z,102662.31
2023-03-03T09:05:58.978Z,102641.53
2023-03-03T09:08:25.706Z,102681.06
2023-03-03T09:10:52.605Z,102637.88
2023-03-03T09:13:21.007Z,102652.31
2023-03-03T09:15:49.241Z,102674.56
2023-03-03T09:18:22.787Z,102684.84
2023-03-03T09:20:53.739Z,102687.38
2023-03-03T09:23:36.949Z,102690.75
2023-03-03T09:26:23.051Z,102682.75
2023-03-03T09:28:50.165Z,102676.75
2023-03-03T09:31:48.006Z,102684.41
2023-03-03T09:34:22.722Z,102685.09
2023-03-03T09:36:54.293Z,102683.19
2023-03-03T09:39:24.770Z,102656.47
2023-03-03T09:42:06.643Z,102677.56
2023-03-03T09:44:51.920Z,102679.06
2023-03-03T09:47:48.073Z,102679.75
2023-03-03T09:50:32.718Z,102680.31
2023-03-03T09:53:11.693Z,102681.75
2023-03-03T09:56:13.444Z,102683.03
2023-03-03T09:59:17.716Z,102680.00
2023-03-03T10:02:16.609Z,102671.03
2023-03-03T10:04:55.980Z,102647.34
2023-03-03T10:07:25.904Z,102679.44
2023-03-03T10:10:31.663Z,102683.34
2023-03-03T10:13:07.055Z,102682.88
2023-03-03T10:15:40.538Z,102681.53
2023-03-03T10:18:25.728Z,102678.53
2023-03-03T10:20:53.372Z,102679.13
2023-03-03T10:23:39.318Z,102681.41
2023-03-03T10:26:26.866Z,102601.88
2023-03-03T10:29:38.924Z,102679.63
2023-03-03T10:32:09.435Z,102680.81
2023-03-03T10:34:39.488Z,102685.66
2023-03-03T10:37:29.606Z,102672.19
2023-03-03T10:39:59.864Z,102674.41
2023-03-03T10:42:44.663Z,102677.47
2023-03-03T10:45:20.444Z,102677.81
2023-03-03T10:47:56.094Z,102674.72
2023-03-03T10:50:45.783Z,102684.75
2023-03-03T10:53:29.814Z,102680.81
2023-03-03T10:56:14.785Z,102678.53
2023-03-03T10:58:52.473Z,102681.84
2023-03-03T11:01:53.522Z,102683.28
2023-03-03T11:04:43.554Z,102682.84
2023-03-03T11:07:28.064Z,102678.88
2023-03-03T11:10:09.030Z,102680.47
2023-03-03T11:13:15.476Z,102661.34
2023-03-03T11:15:56.028Z,102665.16
2023-03-03T11:18:41.683Z,102680.25
2023-03-03T11:21:17.467Z,102681.78
2023-03-03T11:24:11.540Z,102683.28
2023-03-03T11:26:56.130Z,102681.34
2023-03-03T11:29:44.270Z,102673.22
2023-03-03T11:32:27.372Z,102647.25
2023-03-03T11:35:02.298Z,102679.63
2023-03-03T11:37:51.023Z,102672.19
2023-03-03T11:40:26.225Z,102679.81
2023-03-03T11:43:36.756Z,102675.06
2023-03-03T11:46:11.838Z,102673.16
2023-03-03T11:48:53.502Z,102678.56
2023-03-03T11:51:30.470Z,102672.06
2023-03-03T11:53:59.931Z,102671.13
2023-03-03T11:56:42.179Z,102661.19
2023-03-03T11:59:20.699Z,102666.47
2023-03-03T12:01:59.786Z,102663.94
2023-03-03T12:04:36.084Z,102659.66
2023-03-03T12:07:38.048Z,102659.72
2023-03-03T12:10:07.719Z,102660.50
2023-03-03T12:12:43.858Z,102650.72
2023-03-03T12:15:52.224Z,102643.38
2023-03-03T12:18:28.836Z,102655.09
2023-03-03T12:21:03.649Z,102642.63
2023-03-03T12:23:40.965Z,102591.00
2023-03-03T12:26:16.419Z,102649.81
2023-03-03T12:29:05.641Z,102616.81
2023-03-03T12:31:41.277Z,102619.91
2023-03-03T12:34:20.230Z,102639.50
2023-03-03T12:37:09.036Z,102643.84
2023-03-03T12:39:50.879Z,102609.34
2023-03-03T12:42:42.302Z,102640.75
2023-03-03T12:45:37.148Z,102642.75
2023-03-03T12:48:14.262Z,102631.72
2023-03-03T12:50:56.058Z,102630.84
2023-03-03T12:53:45.537Z,102635.44
2023-03-03T12:56:17.115Z,102617.84
2023-03-03T12:59:18.008Z,102631.41
2023-03-03T13:01:44.871Z,102624.31
2023-03-03T13:04:36.415Z,102624.38
2023-03-03T13:07:16.044Z,102621.13
2023-03-03T13:10:16.575Z,102618.25
2023-03-03T13:12:46.402Z,102618.94
2023-03-03T13:15:24.857Z,102604.25
2023-03-03T13:18:06.512Z,102587.84
2023-03-03T13:20:45.352Z,102608.38
2023-03-03T13:23:33.563Z,102572.63
2023-03-03T13:26:20.410Z,102601.53
2023-03-03T13:28:59.789Z,102598.94
2023-03-03T13:31:37.146Z,102599.66
2023-03-03T13:34:04.044Z,102596.09
2023-03-03T13:36:40.394Z,102590.31
2023-03-03T13:39:20.088Z,102595.28
2023-03-03T13:42:06.554Z,102578.03
2023-03-03T13:44:40.689Z,102584.69
2023-03-03T13:47:24.661Z,102576.16
2023-03-03T13:50:06.289Z,102590.13
2023-03-03T13:52:41.122Z,102549.28
2023-03-03T13:55:13.975Z,102578.03
2023-03-03T13:58:03.814Z,102581.28
2023-03-03T14:00:36.813Z,102572.41
2023-03-03T14:03:10.160Z,102573.78
2023-03-03T14:05:48.664Z,102570.34
2023-03-03T14:08:32.469Z,102567.78
2023-03-03T14:11:15.945Z,102570.28
2023-03-03T14:13:49.074Z,102565.06
2023-03-03T14:16:47.389Z,102557.13
2023-03-03T14:19:40.104Z,102565.84
2023-03-03T14:22:23.722Z,102558.69
2023-03-03T14:25:08.135Z,102552.63
2023-03-03T14:27:39.383Z,102543.63
2023-03-03T14:30:25.193Z,102564.63
2023-03-03T14:33:10.428Z,102550.88
2023-03-03T14:35:43.546Z,102557.44
2023-03-03T14:38:20.726Z,102560.31
2023-03-03T14:40:48.924Z,102560.53
2023-03-03T14:43:39.568Z,102548.69
2023-03-03T14:46:24.941Z,102555.91
2023-03-03T14:48:56.657Z,102536.28
2023-03-03T14:51:27.192Z,102523.75
2023-03-03T14:53:54.256Z,102513.53
2023-03-03T14:56:36.863Z,102543.41
2023-03-03T14:59:26.932Z,102517.03
2023-03-03T15:02:18.730Z,102535.28
2023-03-03T15:04:47.592Z,102475.66
2023-03-03T15:07:35.291Z,102535.63
2023-03-03T15:10:02.792Z,102525.34
2023-03-03T15:12:40.662Z,102526.94
2023-03-03T15:15:11.612Z,102529.50
2023-03-03T15:17:44.892Z,102484.97
2023-03-03T15:20:36.311Z,102525.34
2023-03-03T15:23:24.085Z,102524.81
2023-03-03T15:26:00.325Z,102519.84
2023-03-03T15:28:30.163Z,102515.88
2023-03-03T15:31:24.312Z,102512.78
2023-03-03T15:34:20.733Z,102484.00
2023-03-03T15:37:02.784Z,102511.38
2023-03-03T15:39:48.427Z,102509.66
2023-03-03T15:42:42.843Z,102505.47
2023-03-03T15:45:28.077Z,102503.03
2023-03-03T15:48:18.721Z,102501.34
2023-03-03T15:50:48.430Z,102499.84
2023-03-03T15:53:34.652Z,102467.38
2023-03-03T15:56:12.073Z,102500.72
2023-03-03T15:58:54.481Z,102504.19
2023-03-03T16:01:30.230Z,102499.31
2023-03-03T16:04:10.679Z,102500.31
2023-03-03T16:06:38.533Z,102495.19
2023-03-03T16:09:23.512Z,102491.00
2023-03-03T16:12:16.688Z,102506.03
2023-03-03T16:14:51.261Z,102497.34
2023-03-03T16:17:30.499Z,102503.78
2023-03-03T16:19:57.250Z,102506.47
2023-03-03T16:22:42.318Z,102484.25
2023-03-03T16:25:40.574Z,102500.72
2023-03-03T16:28:36.742Z,102501.44
2023-03-03T16:31:11.174Z,102495.38
2023-03-03T16:33:44.176Z,102505.84
2023-03-03T16:36:39.558Z,102503.34
2023-03-03T16:39:10.431Z,102499.91
2023-03-03T16:42:02.642Z,102498.19
2023-03-03T16:44:45.656Z,102500.09
2023-03-03T16:47:40.159Z,102508.13
2023-03-03T16:50:28.464Z,102512.63
2023-03-03T16:53:01.236Z,102506.09
2023-03-03T16:55:35.649Z,102477.00
2023-03-03T16:58:39.374Z,102518.06
2023-03-03T17:01:24.260Z,102520.81
2023-03-03T17:04:10.129Z,102491.09
2023-03-03T17:06:47.038Z,102526.31
2023-03-03T17:09:32.895Z,102529.03
2023-03-03T17:12:16.424Z,102500.78
2023-03-03T17:14:43.124Z,102526.50
2023-03-03T17:17:24.469Z,102520.59
2023-03-03T17:20:07.489Z,102519.06
2023-03-03T17:22:43.781Z,102530.16
2023-03-03T17:25:28.818Z,102523.53
2023-03-03T17:28:16.834Z,102539.84
2023-03-03T17:30:54.168Z,102541.69
2023-03-03T17:33:43.324Z,102509.22
2023-03-03T17:36:30.123Z,102537.50
2023-03-03T17:39:10.693Z,102527.94
2023-03-03T17:41:43.667Z,102538.63
2023-03-03T17:44:13.105Z,102535.97
2023-03-03T17:47:00.565Z,102508.81
2023-03-03T17:49:45.342Z,102537.75
2023-03-03T17:52:49.292Z,102534.34
2023-03-03T17:55:30.071Z,102542.25
2023-03-03T17:58:19.303Z,102547.53
2023-03-03T18:01:13.614Z,102542.25
2023-03-03T18:03:50.374Z,102543.19
2023-03-03T18:06:50.536Z,102542.38
2023-03-03T18:09:23.061Z,102516.03
2023-03-03T18:12:07.129Z,102544.16
2023-03-03T18:14:44.362Z,102545.03
2023-03-03T18:17:55.880Z,102546.97
2023-03-03T18:20:34.600Z,102545.19
2023-03-03T18:23:30.138Z,102538.97
2023-03-03T18:26:02.107Z,102541.53
2023-03-03T18:28:51.077Z,102531.28
2023-03-03T18:31:24.079Z,102543.25
2023-03-03T18:34:25.028Z,102544.09
2023-03-03T18:37:00.693Z,102525.22
2023-03-03T18:39:45.752Z,102546.75
2023-03-03T18:42:30.424Z,102546.81
2023-03-03T18:44:58.455Z,102467.22
2023-03-03T18:48:02.681Z,102551.22
2023-03-03T18:50:34.843Z,102502.50
2023-03-03T18:53:07.679Z,102549.59
2023-03-03T18:55:46.162Z,102553.09
2023-03-03T18:58:15.948Z,102546.09
2023-03-03T19:00:49.492Z,102542.97
2023-03-03T19:03:33.876Z,102548.06
2023-03-03T19:06:02.620Z,102543.66
2023-03-03T19:08:53.760Z,102558.38
2023-03-03T19:11:41.870Z,102548.22
2023-03-03T19:14:17.467Z,102562.84
2023-03-03T19:16:45.798Z,102479.63
2023-03-03T19:19:12.435Z,102560.22
2023-03-03T19:21:40.989Z,102520.78
2023-03-03T19:24:23.113Z,102552.41
2023-03-03T19:26:50.565Z,102555.97
2023-03-03T19:29:36.777Z,102553.34
2023-03-03T19:32:24.852Z,102551.63
2023-03-03T19:35:10.629Z,102557.06
2023-03-03T19:38:11.369Z,102534.00
2023-03-03T19:40:43.992Z,102553.91
2023-03-03T19:43:41.679Z,102567.19
2023-03-03T19:46:20.876Z,102555.88
2023-03-03T19:49:06.362Z,102562.84
2023-03-03T19:51:58.723Z,102573.38
2023-03-03T19:55:12.611Z,102569.19
2023-03-03T19:58:09.258Z,102561.41
2023-03-03T20:01:01.461Z,102549.28
2023-03-03T20:03:59.922Z,102574.56
2023-03-03T20:06:30.084Z,102571.13
2023-03-03T20:09:04.794Z,102561.88
2023-03-03T20:12:05.840Z,102571.16
2023-03-03T20:14:35.325Z,102575.53
2023-03-03T20:17:38.983Z,102513.88
2023-03-03T20:20:20.924Z,102575.53
2023-03-03T20:23:16.961Z,102575.53
2023-03-03T20:25:48.541Z,102554.94
2023-03-03T20:28:30.281Z,102574.66
2023-03-03T20:31:12.528Z,102547.44
2023-03-03T20:33:58.092Z,102579.06
2023-03-03T20:36:34.153Z,102571.34
2023-03-03T20:39:19.698Z,102562.06
2023-03-03T20:42:06.002Z,102595.59
2023-03-03T20:44:51.385Z,102576.72
2023-03-03T20:47:41.077Z,102596.72
2023-03-03T20:50:37.235Z,102586.19
2023-03-03T20:53:18.900Z,102594.09
2023-03-03T20:56:00.087Z,102591.44
2023-03-03T20:58:29.460Z,102591.44
2023-03-03T21:01:07.940Z,102584.47
2023-03-03T21:03:42.121Z,102587.03
2023-03-03T21:06:15.257Z,102586.97
2023-03-03T21:08:56.374Z,102594.81
2023-03-03T21:11:32.440Z,102587.84
2023-03-03T21:14:10.424Z,102582.63
2023-03-03T21:16:37.329Z,102569.63
2023-03-03T21:19:10.517Z,102580.78
2023-03-03T21:21:38.657Z,102593.69
2023-03-03T21:24:06.486Z,102575.75
2023-03-03T21:26:59.319Z,102588.44
2023-03-03T21:29:27.769Z,102592.78
2023-03-03T21:32:03.226Z,102586.91
2023-03-03T21:34:36.034Z,102526.91
2023-03-03T21:37:05.700Z,102593.69
2023-03-03T21:39:39.804Z,102563.78
2023-03-03T21:42:08.220Z,102578.53
2023-03-03T21:44:46.818Z,102579.19
2023-03-03T21:47:15.616Z,102597.19
2023-03-03T21:49:43.785Z,102554.03
2023-03-03T21:52:12.046Z,102585.91
2023-03-03T21:54:39.305Z,102603.16
2023-03-03T21:57:06.149Z,102585.91
2023-03-03T21:59:32.823Z,102593.41
2023-03-03T22:01:59.624Z,102549.97
2023-03-03T22:04:27.118Z,102583.28
2023-03-03T22:06:54.058Z,102581.50
2023-03-03T22:09:20.938Z,102583.34
2023-03-03T22:11:47.975Z,102581.66
2023-03-03T22:14:15.028Z,102585.19
2023-03-03T22:16:42.045Z,102579.19
2023-03-03T22:19:09.463Z,102561.22
2023-03-03T22:21:37.222Z,102587.63
2023-03-03T22:24:04.753Z,102574.78
2023-03-03T22:26:31.683Z,102519.97
2023-03-03T22:28:58.381Z,102576.44
2023-03-03T22:31:25.348Z,102586.06
2023-03-03T22:33:52.173Z,102549.84
2023-03-03T22:36:21.721Z,102556.78
2023-03-03T22:38:49.027Z,102544.03
2023-03-03T22:41:17.336Z,102579.06
2023-03-03T22:43:44.030Z,102556.19
2023-03-03T22:46:12.321Z,102473.84
2023-03-03T22:48:39.703Z,102584.34
2023-03-03T22:51:06.894Z,102572.34
2023-03-03T22:53:33.877Z,102550.06
2023-03-03T22:56:00.646Z,102567.25
2023-03-03T22:58:27.542Z,102564.84
2023-03-03T23:00:55.888Z,102574.91
2023-03-03T23:03:22.875Z,102574.91
2023-03-03T23:05:51.788Z,102500.44
2023-03-03T23:08:20.466Z,102563.78
2023-03-03T23:10:47.601Z,102538.84
2023-03-03T23:13:14.645Z,102570.44
2023-03-03T23:15:41.679Z,102553.44
2023-03-03T23:18:08.616Z,102573.81
2023-03-03T23:20:35.962Z,102579.94
2023-03-03T23:23:03.082Z,102572.34
2023-03-03T23:25:30.015Z,102565.22
2023-03-03T23:27:57.280Z,102564.50
2023-03-03T23:30:24.485Z,102568.81
2023-03-03T23:32:51.716Z,102567.94
2023-03-03T23:35:18.893Z,102543.63
2023-03-03T23:37:46.231Z,102570.25
2023-03-03T23:40:14.902Z,102540.97
2023-03-03T23:42:41.808Z,102544.56
2023-03-03T23:45:09.808Z,102530.88
2023-03-03T23:47:36.757Z,102495.56
2023-03-03T23:50:03.954Z,102571.88
2023-03-03T23:52:30.799Z,102563.13
2023-03-03T23:54:57.571Z,102568.38
2023-03-03T23:57:24.313Z,102564.84
2023-03-03T23:59:51.101Z,102561.41
